sensor_id;sensor_type;location;lat;lon;timestamp;temperature;humidity
47520;DHT22;33252;48.122;11.538;2024-02-14T00:01:51;4.00;99.30
47520;DHT22;33252;48.122;11.538;2024-02-14T00:04:16;3.90;99.40
47520;DHT22;33252;48.122;11.538;2024-02-14T00:06:42;4.00;99.40
47520;DHT22;33252;48.122;11.538;2024-02-14T00:09:08;4.00;99.40
47520;DHT22;33252;48.122;11.538;2024-02-14T00:11:34;4.00;99.40
47520;DHT22;33252;48.122;11.538;2024-02-14T00:13:59;3.90;99.50
47520;DHT22;33252;48.122;11.538;2024-02-14T00:16:28;3.90;99.50
47520;DHT22;33252;48.122;11.538;2024-02-14T00:18:56;3.90;99.50
47520;DHT22;33252;48.122;11.538;2024-02-14T00:21:22;3.90;99.60
47520;DHT22;33252;48.122;11.538;2024-02-14T00:23:48;3.90;99.70
47520;DHT22;33252;48.122;11.538;2024-02-14T00:26:13;3.80;99.70
47520;DHT22;33252;48.122;11.538;2024-02-14T00:28:39;3.80;99.70
47520;DHT22;33252;48.122;11.538;2024-02-14T00:31:05;3.90;99.70
47520;DHT22;33252;48.122;11.538;2024-02-14T00:33:31;3.90;99.70
47520;DHT22;33252;48.122;11.538;2024-02-14T00:35:56;3.80;99.70
47520;DHT22;33252;48.122;11.538;2024-02-14T00:38:22;3.90;99.70
47520;DHT22;33252;48.122;11.538;2024-02-14T00:40:48;3.90;99.90
47520;DHT22;33252;48.122;11.538;2024-02-14T00:43:13;3.90;99.60
47520;DHT22;33252;48.122;11.538;2024-02-14T00:45:39;3.90;99.50
47520;DHT22;33252;48.122;11.538;2024-02-14T00:48:05;3.90;99.50
47520;DHT22;33252;48.122;11.538;2024-02-14T00:50:32;3.90;99.60
47520;DHT22;33252;48.122;11.538;2024-02-14T00:52:59;3.90;99.50
47520;DHT22;33252;48.122;11.538;2024-02-14T00:55:24;4.00;99.60
47520;DHT22;33252;48.122;11.538;2024-02-14T00:57:50;3.90;99.50
47520;DHT22;33252;48.122;11.538;2024-02-14T01:00:16;4.00;99.50
47520;DHT22;33252;48.122;11.538;2024-02-14T01:02:42;4.00;99.50
47520;DHT22;33252;48.122;11.538;2024-02-14T01:05:08;4.00;99.40
47520;DHT22;33252;48.122;11.538;2024-02-14T01:07:34;4.00;99.20
47520;DHT22;33252;48.122;11.538;2024-02-14T01:10:00;4.00;99.10
47520;DHT22;33252;48.122;11.538;2024-02-14T01:12:25;4.00;99.10
47520;DHT22;33252;48.122;11.538;2024-02-14T01:14:51;4.10;99.30
47520;DHT22;33252;48.122;11.538;2024-02-14T01:17:16;4.00;99.00
47520;DHT22;33252;48.122;11.538;2024-02-14T01:19:42;4.10;98.80
47520;DHT22;33252;48.122;11.538;2024-02-14T01:22:09;4.10;98.80
47520;DHT22;33252;48.122;11.538;2024-02-14T01:24:35;4.10;98.60
47520;DHT22;33252;48.122;11.538;2024-02-14T01:27:00;4.10;98.60
47520;DHT22;33252;48.122;11.538;2024-02-14T01:29:26;4.10;98.60
47520;DHT22;33252;48.122;11.538;2024-02-14T01:31:52;4.20;98.60
47520;DHT22;33252;48.122;11.538;2024-02-14T01:34:17;4.10;98.60
47520;DHT22;33252;48.122;11.538;2024-02-14T01:36:43;4.20;98.60
47520;DHT22;33252;48.122;11.538;2024-02-14T01:39:08;4.20;98.60
47520;DHT22;33252;48.122;11.538;2024-02-14T01:41:46;4.20;98.50
47520;DHT22;33252;48.122;11.538;2024-02-14T01:44:14;4.20;98.40
47520;DHT22;33252;48.122;11.538;2024-02-14T01:46:40;4.20;98.50
47520;DHT22;33252;48.122;11.538;2024-02-14T01:49:05;4.10;98.50
47520;DHT22;33252;48.122;11.538;2024-02-14T01:51:31;4.10;98.60
47520;DHT22;33252;48.122;11.538;2024-02-14T01:53:58;4.10;98.50
47520;DHT22;33252;48.122;11.538;2024-02-14T01:56:24;4.10;98.30
47520;DHT22;33252;48.122;11.538;2024-02-14T01:58:50;4.10;98.30
47520;DHT22;33252;48.122;11.538;2024-02-14T02:01:18;4.10;98.40
47520;DHT22;33252;48.122;11.538;2024-02-14T02:03:43;4.20;98.30
47520;DHT22;33252;48.122;11.538;2024-02-14T02:06:09;4.20;98.10
47520;DHT22;33252;48.122;11.538;2024-02-14T02:08:34;4.20;98.20
47520;DHT22;33252;48.122;11.538;2024-02-14T02:11:01;4.20;98.40
47520;DHT22;33252;48.122;11.538;2024-02-14T02:13:26;4.20;98.10
47520;DHT22;33252;48.122;11.538;2024-02-14T02:15:53;4.20;98.10
47520;DHT22;33252;48.122;11.538;2024-02-14T02:18:19;4.20;98.10
47520;DHT22;33252;48.122;11.538;2024-02-14T02:20:45;4.20;98.20
47520;DHT22;33252;48.122;11.538;2024-02-14T02:23:14;4.20;98.20
47520;DHT22;33252;48.122;11.538;2024-02-14T02:25:40;4.20;98.20
47520;DHT22;33252;48.122;11.538;2024-02-14T02:28:06;4.10;98.20
47520;DHT22;33252;48.122;11.538;2024-02-14T02:30:34;4.10;98.20
47520;DHT22;33252;48.122;11.538;2024-02-14T02:33:01;4.00;98.30
47520;DHT22;33252;48.122;11.538;2024-02-14T02:35:27;4.00;98.30
47520;DHT22;33252;48.122;11.538;2024-02-14T02:37:53;4.00;98.40
47520;DHT22;33252;48.122;11.538;2024-02-14T02:40:19;4.00;98.40
47520;DHT22;33252;48.122;11.538;2024-02-14T02:42:47;4.00;98.40
47520;DHT22;33252;48.122;11.538;2024-02-14T02:45:12;4.00;98.50
47520;DHT22;33252;48.122;11.538;2024-02-14T02:47:38;4.00;98.50
47520;DHT22;33252;48.122;11.538;2024-02-14T02:50:05;4.00;98.60
47520;DHT22;33252;48.122;11.538;2024-02-14T02:52:31;4.10;98.50
47520;DHT22;33252;48.122;11.538;2024-02-14T02:54:57;4.00;98.50
47520;DHT22;33252;48.122;11.538;2024-02-14T02:57:23;4.00;98.50
47520;DHT22;33252;48.122;11.538;2024-02-14T02:59:49;4.00;98.60
47520;DHT22;33252;48.122;11.538;2024-02-14T03:02:15;4.00;98.50
47520;DHT22;33252;48.122;11.538;2024-02-14T03:04:41;3.90;98.40
47520;DHT22;33252;48.122;11.538;2024-02-14T03:07:08;4.00;98.50
47520;DHT22;33252;48.122;11.538;2024-02-14T03:09:34;4.00;98.50
47520;DHT22;33252;48.122;11.538;2024-02-14T03:12:03;4.00;98.40
47520;DHT22;33252;48.122;11.538;2024-02-14T03:14:32;4.00;98.40
47520;DHT22;33252;48.122;11.538;2024-02-14T03:17:01;4.00;98.50
47520;DHT22;33252;48.122;11.538;2024-02-14T03:19:27;3.90;98.40
47520;DHT22;33252;48.122;11.538;2024-02-14T03:21:54;3.90;98.40
47520;DHT22;33252;48.122;11.538;2024-02-14T03:24:20;3.90;98.30
47520;DHT22;33252;48.122;11.538;2024-02-14T03:26:45;3.90;98.40
47520;DHT22;33252;48.122;11.538;2024-02-14T03:29:11;3.80;98.20
47520;DHT22;33252;48.122;11.538;2024-02-14T03:31:37;3.80;98.30
47520;DHT22;33252;48.122;11.538;2024-02-14T03:34:03;3.80;98.20
47520;DHT22;33252;48.122;11.538;2024-02-14T03:36:28;3.80;98.20
47520;DHT22;33252;48.122;11.538;2024-02-14T03:38:57;3.80;98.20
47520;DHT22;33252;48.122;11.538;2024-02-14T03:41:22;3.80;98.10
47520;DHT22;33252;48.122;11.538;2024-02-14T03:43:48;3.80;98.20
47520;DHT22;33252;48.122;11.538;2024-02-14T03:46:15;3.70;98.20
47520;DHT22;33252;48.122;11.538;2024-02-14T03:48:43;3.80;98.20
47520;DHT22;33252;48.122;11.538;2024-02-14T03:51:09;3.70;98.20
47520;DHT22;33252;48.122;11.538;2024-02-14T03:53:34;3.70;98.20
47520;DHT22;33252;48.122;11.538;2024-02-14T03:56:00;3.70;98.20
47520;DHT22;33252;48.122;11.538;2024-02-14T03:58:26;3.60;98.20
47520;DHT22;33252;48.122;11.538;2024-02-14T04:00:52;3.60;98.20
47520;DHT22;33252;48.122;11.538;2024-02-14T04:03:18;3.60;98.30
47520;DHT22;33252;48.122;11.538;2024-02-14T04:05:44;3.50;98.30
47520;DHT22;33252;48.122;11.538;2024-02-14T04:08:13;3.50;98.50
47520;DHT22;33252;48.122;11.538;2024-02-14T04:10:39;3.50;98.50
47520;DHT22;33252;48.122;11.538;2024-02-14T04:13:05;3.40;98.60
47520;DHT22;33252;48.122;11.538;2024-02-14T04:15:31;3.40;98.70
47520;DHT22;33252;48.122;11.538;2024-02-14T04:17:57;3.40;98.80
47520;DHT22;33252;48.122;11.538;2024-02-14T04:20:23;3.40;98.80
47520;DHT22;33252;48.122;11.538;2024-02-14T04:22:49;3.40;98.80
47520;DHT22;33252;48.122;11.538;2024-02-14T04:25:14;3.30;98.80
47520;DHT22;33252;48.122;11.538;2024-02-14T04:27:40;3.30;99.00
47520;DHT22;33252;48.122;11.538;2024-02-14T04:30:06;3.20;98.90
47520;DHT22;33252;48.122;11.538;2024-02-14T04:32:31;3.20;98.90
47520;DHT22;33252;48.122;11.538;2024-02-14T04:34:58;3.30;98.90
47520;DHT22;33252;48.122;11.538;2024-02-14T04:37:23;3.30;98.70
47520;DHT22;33252;48.122;11.538;2024-02-14T04:39:49;3.40;98.60
47520;DHT22;33252;48.122;11.538;2024-02-14T04:42:14;3.40;98.50
47520;DHT22;33252;48.122;11.538;2024-02-14T04:44:40;3.40;98.30
47520;DHT22;33252;48.122;11.538;2024-02-14T04:47:06;3.40;98.10
47520;DHT22;33252;48.122;11.538;2024-02-14T04:49:31;3.50;98.20
47520;DHT22;33252;48.122;11.538;2024-02-14T04:51:57;3.50;98.10
47520;DHT22;33252;48.122;11.538;2024-02-14T04:54:23;3.50;98.10
47520;DHT22;33252;48.122;11.538;2024-02-14T04:56:50;3.60;98.10
47520;DHT22;33252;48.122;11.538;2024-02-14T04:59:15;3.60;98.00
47520;DHT22;33252;48.122;11.538;2024-02-14T05:01:41;3.60;98.20
47520;DHT22;33252;48.122;11.538;2024-02-14T05:04:07;3.60;97.80
47520;DHT22;33252;48.122;11.538;2024-02-14T05:06:33;3.60;97.80
47520;DHT22;33252;48.122;11.538;2024-02-14T05:08:58;3.70;97.80
47520;DHT22;33252;48.122;11.538;2024-02-14T05:11:24;3.70;97.90
47520;DHT22;33252;48.122;11.538;2024-02-14T05:13:50;3.70;97.80
47520;DHT22;33252;48.122;11.538;2024-02-14T05:16:20;3.80;97.70
47520;DHT22;33252;48.122;11.538;2024-02-14T05:18:46;3.80;97.70
47520;DHT22;33252;48.122;11.538;2024-02-14T05:21:12;3.80;97.70
47520;DHT22;33252;48.122;11.538;2024-02-14T05:23:38;3.70;97.70
47520;DHT22;33252;48.122;11.538;2024-02-14T05:26:03;3.70;97.60
47520;DHT22;33252;48.122;11.538;2024-02-14T05:28:30;3.70;97.70
47520;DHT22;33252;48.122;11.538;2024-02-14T05:30:59;3.80;97.60
47520;DHT22;33252;48.122;11.538;2024-02-14T05:33:25;3.80;97.50
47520;DHT22;33252;48.122;11.538;2024-02-14T05:35:51;3.70;97.40
47520;DHT22;33252;48.122;11.538;2024-02-14T05:38:17;3.80;97.40
47520;DHT22;33252;48.122;11.538;2024-02-14T05:40:46;3.80;97.30
47520;DHT22;33252;48.122;11.538;2024-02-14T05:43:12;3.90;97.40
47520;DHT22;33252;48.122;11.538;2024-02-14T05:45:38;3.90;97.20
47520;DHT22;33252;48.122;11.538;2024-02-14T05:48:04;3.90;97.20
47520;DHT22;33252;48.122;11.538;2024-02-14T05:50:29;4.00;97.10
47520;DHT22;33252;48.122;11.538;2024-02-14T05:52:55;4.00;97.10
47520;DHT22;33252;48.122;11.538;2024-02-14T05:55:23;4.10;97.00
47520;DHT22;33252;48.122;11.538;2024-02-14T05:57:49;4.10;96.80
47520;DHT22;33252;48.122;11.538;2024-02-14T06:00:15;4.10;96.80
47520;DHT22;33252;48.122;11.538;2024-02-14T06:02:41;4.20;96.80
47520;DHT22;33252;48.122;11.538;2024-02-14T06:05:07;4.20;96.80
47520;DHT22;33252;48.122;11.538;2024-02-14T06:07:35;4.20;96.60
47520;DHT22;33252;48.122;11.538;2024-02-14T06:10:01;4.30;96.20
47520;DHT22;33252;48.122;11.538;2024-02-14T06:12:26;4.30;96.20
47520;DHT22;33252;48.122;11.538;2024-02-14T06:14:52;4.30;96.30
47520;DHT22;33252;48.122;11.538;2024-02-14T06:17:17;4.30;96.10
47520;DHT22;33252;48.122;11.538;2024-02-14T06:19:43;4.30;96.00
47520;DHT22;33252;48.122;11.538;2024-02-14T06:22:08;4.30;96.10
47520;DHT22;33252;48.122;11.538;2024-02-14T06:24:36;4.40;96.10
47520;DHT22;33252;48.122;11.538;2024-02-14T06:27:01;4.40;95.90
47520;DHT22;33252;48.122;11.538;2024-02-14T06:29:27;4.40;96.00
47520;DHT22;33252;48.122;11.538;2024-02-14T06:31:52;4.50;96.10
47520;DHT22;33252;48.122;11.538;2024-02-14T06:34:18;4.50;96.00
47520;DHT22;33252;48.122;11.538;2024-02-14T06:36:46;4.50;95.80
47520;DHT22;33252;48.122;11.538;2024-02-14T06:39:11;4.50;95.80
47520;DHT22;33252;48.122;11.538;2024-02-14T06:41:37;4.50;95.90
47520;DHT22;33252;48.122;11.538;2024-02-14T06:44:04;4.60;95.80
47520;DHT22;33252;48.122;11.538;2024-02-14T06:46:30;4.60;95.90
47520;DHT22;33252;48.122;11.538;2024-02-14T06:48:56;4.60;95.80
47520;DHT22;33252;48.122;11.538;2024-02-14T06:51:22;4.60;95.60
47520;DHT22;33252;48.122;11.538;2024-02-14T06:53:50;4.60;95.80
47520;DHT22;33252;48.122;11.538;2024-02-14T06:56:16;4.70;95.60
47520;DHT22;33252;48.122;11.538;2024-02-14T06:58:41;4.70;95.40
47520;DHT22;33252;48.122;11.538;2024-02-14T07:01:07;4.70;95.30
47520;DHT22;33252;48.122;11.538;2024-02-14T07:03:33;4.80;95.40
47520;DHT22;33252;48.122;11.538;2024-02-14T07:05:59;4.80;95.20
47520;DHT22;33252;48.122;11.538;2024-02-14T07:08:25;4.80;94.60
47520;DHT22;33252;48.122;11.538;2024-02-14T07:10:54;4.80;94.40
47520;DHT22;33252;48.122;11.538;2024-02-14T07:13:20;4.80;94.30
47520;DHT22;33252;48.122;11.538;2024-02-14T07:15:45;4.80;94.20
47520;DHT22;33252;48.122;11.538;2024-02-14T07:18:11;4.90;94.50
47520;DHT22;33252;48.122;11.538;2024-02-14T07:20:36;4.90;94.50
47520;DHT22;33252;48.122;11.538;2024-02-14T07:23:02;5.00;94.50
47520;DHT22;33252;48.122;11.538;2024-02-14T07:25:28;5.00;94.70
47520;DHT22;33252;48.122;11.538;2024-02-14T07:27:54;5.10;94.70
47520;DHT22;33252;48.122;11.538;2024-02-14T07:30:19;5.10;94.50
47520;DHT22;33252;48.122;11.538;2024-02-14T07:32:45;5.10;94.20
47520;DHT22;33252;48.122;11.538;2024-02-14T07:35:11;5.10;94.30
47520;DHT22;33252;48.122;11.538;2024-02-14T07:37:38;5.10;94.30
47520;DHT22;33252;48.122;11.538;2024-02-14T07:40:04;5.10;94.00
47520;DHT22;33252;48.122;11.538;2024-02-14T07:42:31;5.10;94.00
47520;DHT22;33252;48.122;11.538;2024-02-14T07:44:57;5.10;93.90
47520;DHT22;33252;48.122;11.538;2024-02-14T07:47:22;5.20;93.80
47520;DHT22;33252;48.122;11.538;2024-02-14T07:49:48;5.20;93.50
47520;DHT22;33252;48.122;11.538;2024-02-14T07:52:13;5.20;93.40
47520;DHT22;33252;48.122;11.538;2024-02-14T07:54:39;5.30;93.40
47520;DHT22;33252;48.122;11.538;2024-02-14T07:57:05;5.30;93.40
47520;DHT22;33252;48.122;11.538;2024-02-14T07:59:30;5.30;93.30
47520;DHT22;33252;48.122;11.538;2024-02-14T08:01:56;5.30;93.40
47520;DHT22;33252;48.122;11.538;2024-02-14T08:04:23;5.40;93.30
47520;DHT22;33252;48.122;11.538;2024-02-14T08:06:48;5.40;93.20
47520;DHT22;33252;48.122;11.538;2024-02-14T08:09:17;5.50;93.50
47520;DHT22;33252;48.122;11.538;2024-02-14T08:11:42;5.50;93.40
47520;DHT22;33252;48.122;11.538;2024-02-14T08:14:08;5.60;93.40
47520;DHT22;33252;48.122;11.538;2024-02-14T08:16:34;5.60;93.20
47520;DHT22;33252;48.122;11.538;2024-02-14T08:19:01;5.70;93.20
47520;DHT22;33252;48.122;11.538;2024-02-14T08:21:27;5.70;93.30
47520;DHT22;33252;48.122;11.538;2024-02-14T08:23:53;5.80;93.10
47520;DHT22;33252;48.122;11.538;2024-02-14T08:26:20;5.90;93.00
47520;DHT22;33252;48.122;11.538;2024-02-14T08:28:46;5.90;93.00
47520;DHT22;33252;48.122;11.538;2024-02-14T08:31:12;6.00;92.90
47520;DHT22;33252;48.122;11.538;2024-02-14T08:33:38;6.10;92.80
47520;DHT22;33252;48.122;11.538;2024-02-14T08:36:05;6.10;92.80
47520;DHT22;33252;48.122;11.538;2024-02-14T08:38:30;6.20;92.60
47520;DHT22;33252;48.122;11.538;2024-02-14T08:40:57;6.20;92.70
47520;DHT22;33252;48.122;11.538;2024-02-14T08:43:23;6.30;92.60
47520;DHT22;33252;48.122;11.538;2024-02-14T08:45:51;6.40;92.40
47520;DHT22;33252;48.122;11.538;2024-02-14T08:48:17;6.50;92.40
47520;DHT22;33252;48.122;11.538;2024-02-14T08:50:43;6.50;92.10
47520;DHT22;33252;48.122;11.538;2024-02-14T08:53:09;6.70;92.30
47520;DHT22;33252;48.122;11.538;2024-02-14T08:55:35;6.70;92.10
47520;DHT22;33252;48.122;11.538;2024-02-14T08:58:01;6.70;91.80
47520;DHT22;33252;48.122;11.538;2024-02-14T09:00:27;6.80;91.70
47520;DHT22;33252;48.122;11.538;2024-02-14T09:02:52;6.90;91.70
47520;DHT22;33252;48.122;11.538;2024-02-14T09:05:18;7.10;91.30
47520;DHT22;33252;48.122;11.538;2024-02-14T09:07:44;7.20;91.00
47520;DHT22;33252;48.122;11.538;2024-02-14T09:10:10;7.30;90.90
47520;DHT22;33252;48.122;11.538;2024-02-14T09:12:38;7.40;90.50
47520;DHT22;33252;48.122;11.538;2024-02-14T09:15:04;7.60;90.50
47520;DHT22;33252;48.122;11.538;2024-02-14T09:17:30;7.70;89.50
47520;DHT22;33252;48.122;11.538;2024-02-14T09:19:56;7.90;89.60
47520;DHT22;33252;48.122;11.538;2024-02-14T09:22:21;8.00;89.30
47520;DHT22;33252;48.122;11.538;2024-02-14T09:24:48;8.10;88.60
47520;DHT22;33252;48.122;11.538;2024-02-14T09:27:14;8.30;88.00
47520;DHT22;33252;48.122;11.538;2024-02-14T09:29:39;8.30;87.40
47520;DHT22;33252;48.122;11.538;2024-02-14T09:32:05;8.30;87.40
47520;DHT22;33252;48.122;11.538;2024-02-14T09:34:31;8.40;87.70
47520;DHT22;33252;48.122;11.538;2024-02-14T09:36:56;8.50;88.40
47520;DHT22;33252;48.122;11.538;2024-02-14T09:39:24;8.60;86.80
47520;DHT22;33252;48.122;11.538;2024-02-14T09:41:54;8.70;87.50
47520;DHT22;33252;48.122;11.538;2024-02-14T09:44:27;8.80;86.70
47520;DHT22;33252;48.122;11.538;2024-02-14T09:46:54;9.00;86.40
47520;DHT22;33252;48.122;11.538;2024-02-14T09:49:21;9.00;87.50
47520;DHT22;33252;48.122;11.538;2024-02-14T09:51:48;9.00;88.00
47520;DHT22;33252;48.122;11.538;2024-02-14T09:54:17;9.00;88.70
47520;DHT22;33252;48.122;11.538;2024-02-14T09:56:48;9.10;88.00
47520;DHT22;33252;48.122;11.538;2024-02-14T09:59:16;9.20;88.40
47520;DHT22;33252;48.122;11.538;2024-02-14T10:01:41;9.30;87.70
47520;DHT22;33252;48.122;11.538;2024-02-14T10:04:08;9.30;87.50
47520;DHT22;33252;48.122;11.538;2024-02-14T10:06:33;9.30;88.10
47520;DHT22;33252;48.122;11.538;2024-02-14T10:08:59;9.20;88.10
47520;DHT22;33252;48.122;11.538;2024-02-14T10:11:25;9.30;88.20
47520;DHT22;33252;48.122;11.538;2024-02-14T10:13:52;9.40;87.60
47520;DHT22;33252;48.122;11.538;2024-02-14T10:16:19;9.40;87.20
47520;DHT22;33252;48.122;11.538;2024-02-14T10:18:45;9.50;87.10
47520;DHT22;33252;48.122;11.538;2024-02-14T10:21:15;9.50;87.30
47520;DHT22;33252;48.122;11.538;2024-02-14T10:23:45;9.60;86.70
47520;DHT22;33252;48.122;11.538;2024-02-14T10:26:13;9.70;86.80
47520;DHT22;33252;48.122;11.538;2024-02-14T10:28:44;9.80;86.50
47520;DHT22;33252;48.122;11.538;2024-02-14T10:31:10;9.90;86.80
47520;DHT22;33252;48.122;11.538;2024-02-14T10:33:36;10.10;86.50
47520;DHT22;33252;48.122;11.538;2024-02-14T10:36:02;10.10;86.20
47520;DHT22;33252;48.122;11.538;2024-02-14T10:38:32;10.10;86.40
47520;DHT22;33252;48.122;11.538;2024-02-14T10:41:01;10.30;85.80
47520;DHT22;33252;48.122;11.538;2024-02-14T10:43:27;10.40;86.60
47520;DHT22;33252;48.122;11.538;2024-02-14T10:45:59;10.60;86.60
47520;DHT22;33252;48.122;11.538;2024-02-14T10:48:28;10.80;86.00
47520;DHT22;33252;48.122;11.538;2024-02-14T10:50:59;11.00;86.80
47520;DHT22;33252;48.122;11.538;2024-02-14T10:53:29;11.10;86.10
47520;DHT22;33252;48.122;11.538;2024-02-14T10:55:57;11.10;85.60
47520;DHT22;33252;48.122;11.538;2024-02-14T10:58:24;11.20;86.80
47520;DHT22;33252;48.122;11.538;2024-02-14T11:00:52;11.30;86.20
47520;DHT22;33252;48.122;11.538;2024-02-14T11:03:18;11.30;86.40
47520;DHT22;33252;48.122;11.538;2024-02-14T11:05:47;11.40;86.60
47520;DHT22;33252;48.122;11.538;2024-02-14T11:08:22;11.60;86.10
47520;DHT22;33252;48.122;11.538;2024-02-14T11:10:55;11.90;84.90
47520;DHT22;33252;48.122;11.538;2024-02-14T11:13:24;12.20;84.40
47520;DHT22;33252;48.122;11.538;2024-02-14T11:15:51;12.20;84.50
47520;DHT22;33252;48.122;11.538;2024-02-14T11:18:25;12.20;84.20
47520;DHT22;33252;48.122;11.538;2024-02-14T11:20:51;12.10;84.00
47520;DHT22;33252;48.122;11.538;2024-02-14T11:23:21;12.10;83.60
47520;DHT22;33252;48.122;11.538;2024-02-14T11:25:47;12.00;83.80
47520;DHT22;33252;48.122;11.538;2024-02-14T11:28:14;12.10;83.00
47520;DHT22;33252;48.122;11.538;2024-02-14T11:30:41;12.20;83.40
47520;DHT22;33252;48.122;11.538;2024-02-14T11:35:49;12.30;83.80
47520;DHT22;33252;48.122;11.538;2024-02-14T11:38:17;12.20;85.40
47520;DHT22;33252;48.122;11.538;2024-02-14T11:40:43;12.20;85.40
47520;DHT22;33252;48.122;11.538;2024-02-14T11:43:21;12.20;85.90
47520;DHT22;33252;48.122;11.538;2024-02-14T11:45:47;12.20;85.20
47520;DHT22;33252;48.122;11.538;2024-02-14T11:48:16;12.30;84.00
47520;DHT22;33252;48.122;11.538;2024-02-14T11:50:45;12.20;85.00
47520;DHT22;33252;48.122;11.538;2024-02-14T11:53:15;12.10;84.50
47520;DHT22;33252;48.122;11.538;2024-02-14T11:55:47;12.20;84.30
47520;DHT22;33252;48.122;11.538;2024-02-14T11:58:16;12.20;83.90
47520;DHT22;33252;48.122;11.538;2024-02-14T12:00:48;12.20;84.30
47520;DHT22;33252;48.122;11.538;2024-02-14T12:03:18;12.20;84.60
47520;DHT22;33252;48.122;11.538;2024-02-14T12:05:46;12.30;83.60
47520;DHT22;33252;48.122;11.538;2024-02-14T12:08:13;12.30;84.40
47520;DHT22;33252;48.122;11.538;2024-02-14T12:10:41;12.30;83.20
47520;DHT22;33252;48.122;11.538;2024-02-14T12:13:19;12.40;83.00
47520;DHT22;33252;48.122;11.538;2024-02-14T12:15:46;12.50;82.40
47520;DHT22;33252;48.122;11.538;2024-02-14T12:18:12;12.50;82.10
47520;DHT22;33252;48.122;11.538;2024-02-14T12:20:41;12.50;82.30
47520;DHT22;33252;48.122;11.538;2024-02-14T12:23:09;12.60;82.20
47520;DHT22;33252;48.122;11.538;2024-02-14T12:25:39;12.70;81.90
47520;DHT22;33252;48.122;11.538;2024-02-14T12:28:05;12.70;81.60
47520;DHT22;33252;48.122;11.538;2024-02-14T12:30:48;12.70;81.80
47520;DHT22;33252;48.122;11.538;2024-02-14T12:33:15;12.70;82.10
47520;DHT22;33252;48.122;11.538;2024-02-14T12:35:45;12.70;82.10
47520;DHT22;33252;48.122;11.538;2024-02-14T12:38:12;12.70;82.10
47520;DHT22;33252;48.122;11.538;2024-02-14T12:40:38;12.80;82.00
47520;DHT22;33252;48.122;11.538;2024-02-14T12:43:07;12.80;81.80
47520;DHT22;33252;48.122;11.538;2024-02-14T12:45:33;12.80;81.40
47520;DHT22;33252;48.122;11.538;2024-02-14T12:47:59;12.90;80.80
47520;DHT22;33252;48.122;11.538;2024-02-14T12:50:25;12.90;81.60
47520;DHT22;33252;48.122;11.538;2024-02-14T12:52:51;12.80;81.30
47520;DHT22;33252;48.122;11.538;2024-02-14T12:55:16;12.70;82.10
47520;DHT22;33252;48.122;11.538;2024-02-14T12:57:43;12.70;83.30
47520;DHT22;33252;48.122;11.538;2024-02-14T13:00:09;12.60;85.00
47520;DHT22;33252;48.122;11.538;2024-02-14T13:02:35;12.30;89.20
47520;DHT22;33252;48.122;11.538;2024-02-14T13:05:00;12.20;89.30
47520;DHT22;33252;48.122;11.538;2024-02-14T13:07:28;12.10;91.10
47520;DHT22;33252;48.122;11.538;2024-02-14T13:09:53;12.00;91.30
47520;DHT22;33252;48.122;11.538;2024-02-14T13:12:20;11.90;92.00
47520;DHT22;33252;48.122;11.538;2024-02-14T13:14:46;12.00;92.30
47520;DHT22;33252;48.122;11.538;2024-02-14T13:17:12;12.00;91.60
47520;DHT22;33252;48.122;11.538;2024-02-14T13:19:38;12.00;91.80
47520;DHT22;33252;48.122;11.538;2024-02-14T13:22:05;12.10;91.30
47520;DHT22;33252;48.122;11.538;2024-02-14T13:24:30;12.10;91.80
47520;DHT22;33252;48.122;11.538;2024-02-14T13:26:56;12.30;92.10
47520;DHT22;33252;48.122;11.538;2024-02-14T13:29:23;12.40;91.30
47520;DHT22;33252;48.122;11.538;2024-02-14T13:31:50;12.40;90.40
47520;DHT22;33252;48.122;11.538;2024-02-14T13:34:15;12.40;90.90
47520;DHT22;33252;48.122;11.538;2024-02-14T13:36:41;12.40;90.50
47520;DHT22;33252;48.122;11.538;2024-02-14T13:39:07;12.40;90.20
47520;DHT22;33252;48.122;11.538;2024-02-14T13:41:33;12.40;90.30
47520;DHT22;33252;48.122;11.538;2024-02-14T13:44:01;12.50;90.20
47520;DHT22;33252;48.122;11.538;2024-02-14T13:46:26;12.50;90.10
47520;DHT22;33252;48.122;11.538;2024-02-14T13:48:52;12.70;90.20
47520;DHT22;33252;48.122;11.538;2024-02-14T13:51:18;12.90;89.40
47520;DHT22;33252;48.122;11.538;2024-02-14T13:53:43;12.80;89.00
47520;DHT22;33252;48.122;11.538;2024-02-14T13:56:09;12.80;88.70
47520;DHT22;33252;48.122;11.538;2024-02-14T13:58:34;13.00;88.10
47520;DHT22;33252;48.122;11.538;2024-02-14T14:01:00;13.70;87.30
47520;DHT22;33252;48.122;11.538;2024-02-14T14:03:26;13.50;86.70
47520;DHT22;33252;48.122;11.538;2024-02-14T14:05:53;13.40;87.00
47520;DHT22;33252;48.122;11.538;2024-02-14T14:08:18;13.00;87.90
47520;DHT22;33252;48.122;11.538;2024-02-14T14:10:44;13.00;87.80
47520;DHT22;33252;48.122;11.538;2024-02-14T14:13:10;13.40;86.90
47520;DHT22;33252;48.122;11.538;2024-02-14T14:15:36;14.10;85.70
47520;DHT22;33252;48.122;11.538;2024-02-14T14:18:01;14.80;84.30
47520;DHT22;33252;48.122;11.538;2024-02-14T14:20:27;15.40;82.70
47520;DHT22;33252;48.122;11.538;2024-02-14T14:22:52;16.00;82.00
47520;DHT22;33252;48.122;11.538;2024-02-14T14:25:18;15.40;82.20
47520;DHT22;33252;48.122;11.538;2024-02-14T14:27:43;14.90;83.40
47520;DHT22;33252;48.122;11.538;2024-02-14T14:30:09;14.40;84.20
47520;DHT22;33252;48.122;11.538;2024-02-14T14:32:35;14.50;84.70
47520;DHT22;33252;48.122;11.538;2024-02-14T14:35:01;14.40;85.50
47520;DHT22;33252;48.122;11.538;2024-02-14T14:37:26;14.20;85.80
47520;DHT22;33252;48.122;11.538;2024-02-14T14:39:52;14.10;86.30
47520;DHT22;33252;48.122;11.538;2024-02-14T14:42:17;14.00;87.20
47520;DHT22;33252;48.122;11.538;2024-02-14T14:44:43;13.70;88.10
47520;DHT22;33252;48.122;11.538;2024-02-14T14:47:08;13.90;87.50
47520;DHT22;33252;48.122;11.538;2024-02-14T14:49:36;13.80;87.70
47520;DHT22;33252;48.122;11.538;2024-02-14T14:52:03;13.70;88.30
47520;DHT22;33252;48.122;11.538;2024-02-14T14:54:30;13.90;88.70
47520;DHT22;33252;48.122;11.538;2024-02-14T14:56:55;14.20;88.60
47520;DHT22;33252;48.122;11.538;2024-02-14T14:59:21;14.20;88.70
47520;DHT22;33252;48.122;11.538;2024-02-14T15:01:48;13.90;88.50
47520;DHT22;33252;48.122;11.538;2024-02-14T15:04:14;13.90;89.10
47520;DHT22;33252;48.122;11.538;2024-02-14T15:06:40;14.00;89.60
47520;DHT22;33252;48.122;11.538;2024-02-14T15:09:06;14.10;89.40
47520;DHT22;33252;48.122;11.538;2024-02-14T15:11:32;13.90;89.30
47520;DHT22;33252;48.122;11.538;2024-02-14T15:13:58;13.50;90.30
47520;DHT22;33252;48.122;11.538;2024-02-14T15:16:23;13.20;90.60
47520;DHT22;33252;48.122;11.538;2024-02-14T15:18:49;12.90;91.10
47520;DHT22;33252;48.122;11.538;2024-02-14T15:21:15;12.90;91.20
47520;DHT22;33252;48.122;11.538;2024-02-14T15:23:41;12.80;91.30